createdAt,value
2017-04-26T00:00:40.694Z,2.70
2017-04-26T00:01:41.780Z,2.37
2017-04-26T00:02:42.710Z,2.62
2017-04-26T00:03:43.606Z,2.85
2017-04-26T00:04:45.398Z,2.70
2017-04-26T00:05:46.094Z,2.32
2017-04-26T00:06:46.774Z,3.07
2017-04-26T00:07:49.399Z,2.58
2017-04-26T00:08:49.975Z,3.33
2017-04-26T00:09:51.934Z,2.52
2017-04-26T00:10:52.791Z,2.88
2017-04-26T00:11:53.522Z,3.08
2017-04-26T00:12:55.687Z,3.33
2017-04-26T00:13:58.183Z,2.33
2017-04-26T00:14:59.202Z,2.57
2017-04-26T00:16:00.127Z,2.97
2017-04-26T00:17:00.883Z,2.50
2017-04-26T00:18:02.494Z,3.48
2017-04-26T00:19:03.868Z,3.03
2017-04-26T00:20:05.722Z,2.78
2017-04-26T00:21:07.635Z,2.85
2017-04-26T00:22:08.916Z,2.48
2017-04-26T00:23:10.546Z,2.42
2017-04-26T00:24:10.178Z,2.75
2017-04-26T00:25:10.946Z,2.92
2017-04-26T00:26:11.966Z,3.13
2017-04-26T00:27:13.756Z,2.77
2017-04-26T00:28:14.722Z,3.10
2017-04-26T00:29:15.579Z,2.98
2017-04-26T00:30:16.078Z,2.68
2017-04-26T00:31:16.952Z,2.90
2017-04-26T00:32:18.456Z,2.87
2017-04-26T00:33:19.942Z,3.32
2017-04-26T00:34:21.943Z,2.65
2017-04-26T00:35:22.534Z,2.80
2017-04-26T00:36:24.210Z,3.03
2017-04-26T00:37:31.327Z,2.67
2017-04-26T00:38:32.363Z,3.48
2017-04-26T00:39:34.110Z,2.93
2017-04-26T00:40:35.078Z,2.82
2017-04-26T00:41:36.522Z,2.97
2017-04-26T00:42:37.499Z,2.83
2017-04-26T00:43:42.859Z,3.03
2017-04-26T00:44:43.679Z,3.35
2017-04-26T00:45:45.895Z,3.30
2017-04-26T00:46:46.895Z,2.53
2017-04-26T00:47:48.851Z,3.10
2017-04-26T00:48:50.263Z,2.67
2017-04-26T00:49:54.562Z,3.03
2017-04-26T00:50:55.817Z,3.23
2017-04-26T00:52:03.738Z,3.47
2017-04-26T00:53:05.238Z,3.15
2017-04-26T00:54:07.191Z,2.80
2017-04-26T00:55:08.652Z,3.38
2017-04-26T00:56:10.259Z,3.07
2017-04-26T00:57:15.528Z,3.48
2017-04-26T00:58:17.547Z,3.63
2017-04-26T00:59:19.622Z,3.70
2017-04-26T01:00:20.886Z,3.53
2017-04-26T01:01:22.186Z,3.82
2017-04-26T01:02:25.074Z,3.83
2017-04-26T01:03:26.074Z,3.23
2017-04-26T01:04:27.030Z,3.92
2017-04-26T01:05:27.942Z,3.80
2017-04-26T01:06:29.157Z,3.75
2017-04-26T01:07:29.783Z,3.78
2017-04-26T01:08:31.012Z,4.10
2017-04-26T01:09:32.882Z,3.95
2017-04-26T01:10:33.958Z,3.67
2017-04-26T01:11:35.572Z,3.77
2017-04-26T01:12:37.667Z,4.10
2017-04-26T01:13:38.833Z,3.43
2017-04-26T01:14:40.822Z,3.82
2017-04-26T01:15:45.227Z,3.52
2017-04-26T01:16:46.386Z,4.10
2017-04-26T01:17:47.327Z,4.17
2017-04-26T01:18:49.208Z,4.95
2017-04-26T01:19:51.147Z,4.40
2017-04-26T01:20:52.263Z,5.02
2017-04-26T01:21:54.315Z,4.12
2017-04-26T01:22:56.015Z,3.93
2017-04-26T01:23:56.651Z,4.03
2017-04-26T01:24:57.382Z,4.03
2017-04-26T01:25:59.432Z,3.95
2017-04-26T01:27:01.894Z,4.90
2017-04-26T01:28:06.879Z,4.62
2017-04-26T01:29:08.703Z,4.45
2017-04-26T01:30:09.390Z,5.53
2017-04-26T01:31:11.983Z,4.72
2017-04-26T01:32:13.819Z,4.98
2017-04-26T01:33:15.770Z,5.20
2017-04-26T01:34:16.587Z,4.85
2017-04-26T01:35:17.494Z,4.62
2017-04-26T01:36:21.487Z,4.95
2017-04-26T01:37:24.107Z,4.68
2017-04-26T01:38:29.603Z,4.95
2017-04-26T01:39:31.615Z,5.02
2017-04-26T01:40:36.375Z,4.70
2017-04-26T01:41:40.318Z,4.52
2017-04-26T01:42:43.115Z,5.42
2017-04-26T01:43:44.019Z,4.95
2017-04-26T01:44:46.871Z,4.45
2017-04-26T01:45:48.278Z,4.63
2017-04-26T01:46:49.871Z,5.07
2017-04-26T01:47:51.935Z,5.42
2017-04-26T01:48:53.515Z,5.27
2017-04-26T01:49:56.109Z,5.35
2017-04-26T01:50:59.054Z,5.43
2017-04-26T01:52:00.658Z,5.48
2017-04-26T01:53:02.695Z,5.72
2017-04-26T01:54:04.589Z,6.25
2017-04-26T01:55:07.251Z,5.55
2017-04-26T01:56:09.647Z,5.28
2017-04-26T01:57:12.531Z,6.58
2017-04-26T01:58:13.869Z,5.72
2017-04-26T01:59:18.571Z,6.05
2017-04-26T02:00:22.905Z,5.98
2017-04-26T02:01:26.459Z,5.53
2017-04-26T02:02:27.927Z,6.45
2017-04-26T02:03:29.453Z,5.72
2017-04-26T02:04:30.843Z,5.92
2017-04-26T02:05:34.126Z,6.03
2017-04-26T02:06:37.364Z,5.82
2017-04-26T02:07:39.092Z,5.78
2017-04-26T02:08:41.230Z,6.30
2017-04-26T02:09:43.299Z,6.87
2017-04-26T02:10:44.595Z,5.98
2017-04-26T02:11:47.114Z,6.07
2017-04-26T02:12:49.289Z,6.13
2017-04-26T02:13:51.275Z,5.43
2017-04-26T02:14:53.130Z,6.03
2017-04-26T02:15:54.399Z,5.90
2017-04-26T02:16:56.556Z,6.07
2017-04-26T02:17:58.619Z,5.68
2017-04-26T02:19:00.659Z,5.60
2017-04-26T02:20:03.343Z,6.23
2017-04-26T02:21:06.499Z,5.98
2017-04-26T02:22:11.964Z,6.10
2017-04-26T02:23:14.256Z,5.37
2017-04-26T02:24:18.443Z,5.72
2017-04-26T02:25:20.883Z,5.08
2017-04-26T02:26:23.211Z,5.50
2017-04-26T02:27:32.052Z,5.80
2017-04-26T02:28:35.852Z,5.22
2017-04-26T02:29:37.916Z,5.23
2017-04-26T02:30:42.858Z,6.27
2017-04-26T02:31:47.131Z,5.80
2017-04-26T02:32:51.762Z,6.00
2017-04-26T02:33:55.465Z,6.00
2017-04-26T02:34:59.222Z,5.55
2017-04-26T02:35:59.454Z,5.83
2017-04-26T02:36:59.568Z,5.58
2017-04-26T02:37:59.692Z,6.07
2017-04-26T02:38:59.803Z,5.80
2017-04-26T02:39:59.912Z,5.83
2017-04-26T02:41:00.026Z,5.32
2017-04-26T02:42:00.187Z,5.85
2017-04-26T02:43:00.316Z,6.57
2017-04-26T02:44:00.422Z,5.78
2017-04-26T02:45:00.534Z,5.77
2017-04-26T02:46:00.643Z,6.27
2017-04-26T02:47:00.745Z,6.67
2017-04-26T02:48:01.223Z,6.35
2017-04-26T02:49:01.346Z,5.75
2017-04-26T02:50:02.205Z,5.73
2017-04-26T02:51:02.547Z,5.90
2017-04-26T02:52:02.657Z,5.92
2017-04-26T02:53:02.790Z,6.57
2017-04-26T02:54:02.909Z,6.70
2017-04-26T02:55:03.763Z,6.18
2017-04-26T02:56:03.874Z,5.60
2017-04-26T02:57:03.974Z,6.05
2017-04-26T02:58:04.106Z,5.87
2017-04-26T02:59:04.222Z,5.97
2017-04-26T03:00:04.329Z,5.63
2017-04-26T03:01:04.440Z,5.93
2017-04-26T03:02:04.589Z,5.93
2017-04-26T03:03:04.739Z,6.10
2017-04-26T03:04:04.937Z,6.28
2017-04-26T03:05:06.494Z,6.10
2017-04-26T03:06:06.701Z,5.85
2017-04-26T03:07:07.582Z,6.55
2017-04-26T03:08:07.735Z,5.88
2017-04-26T03:09:07.843Z,5.85
2017-04-26T03:10:08.747Z,6.40
2017-04-26T03:11:08.923Z,6.05
2017-04-26T03:12:09.048Z,6.23
2017-04-26T03:13:09.177Z,5.93
2017-04-26T03:14:09.268Z,5.98
2017-04-26T03:15:09.703Z,6.07
2017-04-26T03:16:09.794Z,5.95
2017-04-26T03:17:09.915Z,6.05
2017-04-26T03:18:10.035Z,5.75
2017-04-26T03:19:10.135Z,6.42
2017-04-26T03:20:10.532Z,5.88
2017-04-26T03:21:10.644Z,6.48
2017-04-26T03:22:10.784Z,6.47
2017-04-26T03:23:11.646Z,6.22
2017-04-26T03:24:11.742Z,6.32
2017-04-26T03:25:11.870Z,6.05
2017-04-26T03:26:11.973Z,5.90
2017-04-26T03:27:12.062Z,5.83
2017-04-26T03:28:12.935Z,6.50
2017-04-26T03:29:13.053Z,6.43
2017-04-26T03:30:13.191Z,6.22
2017-04-26T03:31:13.299Z,6.23
2017-04-26T03:32:13.402Z,6.38
2017-04-26T03:33:13.530Z,6.12
2017-04-26T03:34:13.890Z,6.00
2017-04-26T03:35:13.995Z,6.33
2017-04-26T03:36:14.090Z,5.60
2017-04-26T03:37:14.201Z,6.50
2017-04-26T03:38:14.343Z,6.37
2017-04-26T03:39:14.471Z,5.97
2017-04-26T03:40:14.570Z,6.22
2017-04-26T03:41:14.678Z,6.18
2017-04-26T03:42:14.814Z,6.62
2017-04-26T03:43:14.933Z,6.15
2017-04-26T03:44:15.794Z,5.63
2017-04-26T03:45:15.902Z,7.15
2017-04-26T03:46:16.038Z,6.45
2017-04-26T03:47:16.174Z,6.12
2017-04-26T03:48:16.294Z,5.93
2017-04-26T03:49:17.127Z,6.25
2017-04-26T03:50:18.352Z,5.95
2017-04-26T03:51:18.463Z,6.10
2017-04-26T03:52:19.301Z,5.45
2017-04-26T03:53:20.193Z,5.83
2017-04-26T03:54:20.296Z,6.73
2017-04-26T03:55:21.126Z,6.67
2017-04-26T03:56:21.250Z,6.05
2017-04-26T03:57:21.415Z,5.85
2017-04-26T03:58:21.590Z,6.28
2017-04-26T03:59:22.424Z,5.55
2017-04-26T04:00:23.582Z,6.35
2017-04-26T04:01:23.694Z,6.20
2017-04-26T04:02:23.842Z,5.93
2017-04-26T04:03:24.367Z,6.35
2017-04-26T04:04:24.501Z,6.52
2017-04-26T04:05:25.359Z,6.08
2017-04-26T04:06:25.446Z,5.93
2017-04-26T04:07:26.282Z,7.23
2017-04-26T04:08:26.419Z,6.07
2017-04-26T04:09:26.515Z,7.32
2017-04-26T04:10:26.950Z,6.90
2017-04-26T04:11:27.059Z,6.07
2017-04-26T04:12:27.154Z,6.05
2017-04-26T04:13:27.275Z,6.37
2017-04-26T04:14:27.391Z,6.70
2017-04-26T04:15:27.666Z,6.68
2017-04-26T04:16:27.750Z,6.27
2017-04-26T04:17:28.602Z,6.17
2017-04-26T04:18:28.734Z,6.75
2017-04-26T04:19:28.838Z,7.52
2017-04-26T04:20:28.979Z,6.83
2017-04-26T04:21:29.098Z,7.17
2017-04-26T04:22:29.216Z,7.35
2017-04-26T04:23:29.335Z,6.35
2017-04-26T04:24:29.435Z,6.33
2017-04-26T04:25:29.554Z,6.87
2017-04-26T04:26:29.699Z,6.75
2017-04-26T04:27:29.810Z,6.18
2017-04-26T04:28:30.320Z,7.77
2017-04-26T04:29:30.483Z,7.48
2017-04-26T04:30:30.588Z,7.38
2017-04-26T04:31:30.692Z,6.33
2017-04-26T04:32:31.107Z,7.97
2017-04-26T04:33:31.234Z,6.93
2017-04-26T04:34:31.334Z,7.18
2017-04-26T04:35:31.764Z,6.72
2017-04-26T04:36:32.606Z,6.18
2017-04-26T04:37:33.446Z,6.10
2017-04-26T04:38:33.575Z,6.93
2017-04-26T04:39:33.674Z,6.97
2017-04-26T04:40:33.774Z,6.32
2017-04-26T04:41:33.866Z,6.07
2017-04-26T04:42:34.297Z,6.20
2017-04-26T04:43:35.195Z,6.77
2017-04-26T04:44:35.302Z,6.58
2017-04-26T04:45:35.710Z,7.03
2017-04-26T04:46:35.816Z,7.17
2017-04-26T04:47:35.987Z,6.45
2017-04-26T04:48:36.183Z,7.15
2017-04-26T04:49:36.302Z,7.22
2017-04-26T04:50:36.415Z,7.08
2017-04-26T04:51:36.525Z,6.53
2017-04-26T04:52:36.626Z,7.02
2017-04-26T04:53:37.103Z,6.63
2017-04-26T04:54:37.215Z,6.53
2017-04-26T04:55:37.370Z,6.90
2017-04-26T04:56:37.516Z,8.67
2017-04-26T04:57:37.617Z,5.43
2017-04-26T04:58:37.748Z,6.98
2017-04-26T04:59:37.862Z,5.80
2017-04-26T05:00:37.966Z,5.50
2017-04-26T05:01:38.064Z,6.28
2017-04-26T05:02:38.175Z,6.60
2017-04-26T05:03:38.295Z,5.93
2017-04-26T05:04:38.394Z,6.45
2017-04-26T05:05:38.490Z,7.02
2017-04-26T05:06:38.609Z,5.85
2017-04-26T05:07:38.732Z,6.13
2017-04-26T05:08:38.858Z,6.47
2017-04-26T05:09:38.951Z,5.73
2017-04-26T05:10:39.373Z,6.00
2017-04-26T05:11:39.486Z,6.60
2017-04-26T05:12:39.888Z,7.10
2017-04-26T05:13:40.018Z,5.88
2017-04-26T05:14:40.106Z,6.65
2017-04-26T05:15:40.210Z,5.88
2017-04-26T05:16:40.306Z,5.43
2017-04-26T05:17:40.419Z,5.88
2017-04-26T05:18:40.983Z,5.68
2017-04-26T05:19:41.090Z,5.98
2017-04-26T05:20:41.204Z,5.80
2017-04-26T05:21:42.043Z,5.08
2017-04-26T05:22:42.886Z,6.23
2017-04-26T05:23:43.016Z,7.27
2017-04-26T05:24:43.122Z,6.42
2017-04-26T05:25:43.562Z,5.77
2017-04-26T05:26:43.698Z,5.67
2017-04-26T05:27:43.815Z,5.22
2017-04-26T05:28:44.694Z,5.97
2017-04-26T05:29:44.802Z,5.38
2017-04-26T05:30:44.909Z,5.77
2017-04-26T05:31:51.802Z,5.02
2017-04-26T05:32:52.221Z,5.83
2017-04-26T05:33:52.374Z,6.03
2017-04-26T05:34:53.218Z,5.58
2017-04-26T05:35:53.390Z,6.27
2017-04-26T05:36:54.311Z,5.75
2017-04-26T05:37:54.419Z,5.47
2017-04-26T05:38:54.843Z,4.77
2017-04-26T05:39:55.707Z,5.27
2017-04-26T05:40:55.826Z,5.77
2017-04-26T05:41:55.935Z,6.23
2017-04-26T05:42:56.034Z,5.43
2017-04-26T05:43:56.185Z,5.55
2017-04-26T05:44:56.286Z,6.35
2017-04-26T05:45:56.393Z,6.10
2017-04-26T05:46:56.490Z,5.22
2017-04-26T05:47:56.591Z,4.72
2017-04-26T05:48:56.732Z,5.43
2017-04-26T05:49:56.831Z,5.67
2017-04-26T05:50:57.686Z,5.75
2017-04-26T05:51:57.801Z,5.38
2017-04-26T05:52:57.936Z,5.50
2017-04-26T05:53:58.103Z,6.07
2017-04-26T05:54:58.264Z,5.03
2017-04-26T05:55:58.374Z,5.62
2017-04-26T05:56:58.474Z,4.88
2017-04-26T05:57:59.305Z,4.95
2017-04-26T05:58:59.468Z,5.85
2017-04-26T05:59:59.577Z,5.23
2017-04-26T06:00:59.687Z,5.32
2017-04-26T06:01:59.796Z,6.25
2017-04-26T06:02:59.894Z,5.15
2017-04-26T06:04:00.006Z,5.27
2017-04-26T06:05:00.106Z,5.40
2017-04-26T06:06:00.197Z,4.53
2017-04-26T06:07:00.303Z,4.38
2017-04-26T06:08:00.407Z,5.22
2017-04-26T06:09:00.527Z,4.68
2017-04-26T06:10:00.702Z,4.50
2017-04-26T06:11:01.563Z,4.22
2017-04-26T06:12:01.670Z,4.38
2017-04-26T06:13:01.803Z,4.23
2017-04-26T06:14:01.919Z,5.03
2017-04-26T06:15:02.014Z,4.55
2017-04-26T06:16:02.115Z,4.53
2017-04-26T06:17:02.218Z,5.50
2017-04-26T06:18:02.318Z,5.15
2017-04-26T06:19:02.426Z,5.67
2017-04-26T06:20:02.534Z,4.52
2017-04-26T06:21:02.628Z,4.23
2017-04-26T06:22:03.466Z,4.78
2017-04-26T06:23:03.567Z,4.83
2017-04-26T06:24:04.434Z,4.75
2017-04-26T06:25:04.531Z,4.72
2017-04-26T06:26:04.704Z,4.77
2017-04-26T06:27:04.820Z,5.77
2017-04-26T06:28:05.682Z,4.28
2017-04-26T06:29:05.823Z,4.10
2017-04-26T06:30:05.958Z,4.53
2017-04-26T06:31:06.078Z,4.52
2017-04-26T06:32:06.946Z,4.38
2017-04-26T06:33:07.070Z,3.78
2017-04-26T06:34:07.208Z,4.12
2017-04-26T06:35:07.315Z,3.98
2017-04-26T06:36:07.414Z,4.03
2017-04-26T06:37:07.517Z,3.68
2017-04-26T06:38:07.607Z,2.98
2017-04-26T06:39:07.731Z,4.28
2017-04-26T06:40:07.833Z,3.90
2017-04-26T06:41:07.934Z,4.53
2017-04-26T06:42:08.030Z,4.63
2017-04-26T06:43:08.131Z,4.33
2017-04-26T06:44:08.302Z,4.33
2017-04-26T06:45:08.419Z,3.80
2017-04-26T06:46:09.268Z,4.98
2017-04-26T06:47:09.429Z,4.75
2017-04-26T06:48:09.540Z,3.87
2017-04-26T06:49:09.702Z,3.45
2017-04-26T06:50:09.807Z,4.72
2017-04-26T06:51:09.967Z,3.82
2017-04-26T06:52:10.066Z,4.68
2017-04-26T06:53:10.170Z,4.67
2017-04-26T06:54:10.299Z,5.08
2017-04-26T06:55:10.411Z,4.55
2017-04-26T06:56:10.517Z,4.73
2017-04-26T06:57:10.617Z,4.22
2017-04-26T06:58:10.717Z,4.88
2017-04-26T06:59:10.840Z,5.60
2017-04-26T07:00:11.026Z,5.10
2017-04-26T07:01:11.151Z,6.72
2017-04-26T07:02:11.250Z,5.20
2017-04-26T07:03:11.442Z,4.62
2017-04-26T07:04:11.562Z,4.75
2017-04-26T07:05:12.447Z,4.43
2017-04-26T07:06:12.643Z,5.00
2017-04-26T07:07:12.746Z,4.37
2017-04-26T07:08:12.846Z,4.88
2017-04-26T07:09:12.954Z,4.43
2017-04-26T07:10:13.078Z,5.70
2017-04-26T07:11:13.234Z,4.35
2017-04-26T07:12:13.331Z,5.48
2017-04-26T07:13:14.174Z,5.32
2017-04-26T07:14:14.286Z,5.22
2017-04-26T07:15:14.422Z,6.12
2017-04-26T07:16:15.637Z,5.08
2017-04-26T07:17:15.753Z,5.52
2017-04-26T07:18:15.894Z,4.90
2017-04-26T07:19:16.282Z,5.98
2017-04-26T07:20:16.419Z,5.28
2017-04-26T07:21:17.326Z,5.25
2017-04-26T07:22:17.464Z,5.42
2017-04-26T07:23:17.599Z,4.58
2017-04-26T07:24:18.442Z,4.77
2017-04-26T07:25:18.590Z,5.45
2017-04-26T07:26:18.729Z,4.70
2017-04-26T07:27:18.858Z,4.13
2017-04-26T07:28:18.974Z,5.07
2017-04-26T07:29:19.817Z,5.73
2017-04-26T07:30:20.517Z,5.32
2017-04-26T07:31:21.375Z,5.10
2017-04-26T07:32:21.490Z,5.55
2017-04-26T07:33:21.594Z,4.78
2017-04-26T07:34:21.706Z,4.55
2017-04-26T07:35:21.930Z,4.15
2017-04-26T07:36:22.038Z,4.40
2017-04-26T07:37:22.142Z,4.70
2017-04-26T07:38:22.238Z,4.15
2017-04-26T07:39:22.353Z,4.72
2017-04-26T07:40:22.474Z,4.58
2017-04-26T07:41:22.604Z,4.17
2017-04-26T07:42:23.490Z,4.35
2017-04-26T07:43:23.611Z,4.42
2017-04-26T07:44:23.714Z,4.37
2017-04-26T07:45:23.838Z,5.08
2017-04-26T07:46:23.967Z,5.25
2017-04-26T07:47:24.099Z,5.30
2017-04-26T07:48:24.195Z,5.02
2017-04-26T07:49:24.298Z,5.15
2017-04-26T07:50:24.439Z,4.80
2017-04-26T07:51:24.544Z,5.15
2017-04-26T07:52:25.419Z,4.00
2017-04-26T07:53:25.517Z,5.73
2017-04-26T07:54:25.619Z,4.55
2017-04-26T07:55:25.755Z,4.85
2017-04-26T07:56:25.873Z,4.43
2017-04-26T07:57:25.990Z,4.77
2017-04-26T07:58:26.115Z,4.52
2017-04-26T07:59:26.303Z,4.98
2017-04-26T08:00:26.443Z,5.15
2017-04-26T08:01:26.546Z,5.38
2017-04-26T08:02:26.714Z,5.47
2017-04-26T08:03:26.855Z,4.80
2017-04-26T08:04:26.982Z,4.15
2017-04-26T08:05:27.094Z,4.63
2017-04-26T08:06:27.195Z,4.57
2017-04-26T08:07:27.302Z,3.75
2017-04-26T08:08:27.407Z,4.50
2017-04-26T08:09:27.516Z,4.43
2017-04-26T08:10:27.646Z,4.30
2017-04-26T08:11:27.736Z,4.40
2017-04-26T08:12:27.845Z,3.98
2017-04-26T08:13:27.951Z,4.83
2017-04-26T08:14:28.063Z,4.25
2017-04-26T08:15:28.194Z,4.37
2017-04-26T08:16:28.563Z,3.92
2017-04-26T08:17:28.681Z,3.93
2017-04-26T08:18:28.787Z,3.85
2017-04-26T08:19:28.885Z,4.00
2017-04-26T08:20:29.027Z,4.23
2017-04-26T08:21:29.137Z,3.93
2017-04-26T08:22:29.233Z,3.27
2017-04-26T08:23:29.347Z,3.08
2017-04-26T08:24:29.466Z,3.25
2017-04-26T08:25:29.594Z,2.68
2017-04-26T08:26:29.750Z,3.02
2017-04-26T08:27:29.879Z,3.98
2017-04-26T08:28:29.981Z,3.30
2017-04-26T08:29:30.090Z,2.77
2017-04-26T08:30:30.229Z,3.05
2017-04-26T08:31:30.328Z,3.12
2017-04-26T08:32:30.437Z,3.48
2017-04-26T08:33:30.542Z,3.60
2017-04-26T08:34:30.645Z,2.87
2017-04-26T08:35:30.772Z,3.95
2017-04-26T08:36:30.880Z,2.60
2017-04-26T08:37:31.018Z,3.08
2017-04-26T08:38:31.127Z,2.80
2017-04-26T08:39:31.246Z,4.18
2017-04-26T08:40:32.113Z,3.73
2017-04-26T08:41:32.218Z,3.58
2017-04-26T08:42:32.594Z,3.55
2017-04-26T08:43:33.463Z,3.87
2017-04-26T08:44:33.595Z,3.58
2017-04-26T08:45:33.742Z,3.15
2017-04-26T08:46:34.594Z,3.35
2017-04-26T08:47:34.715Z,3.27
2017-04-26T08:48:34.870Z,2.57
2017-04-26T08:49:34.979Z,2.47
2017-04-26T08:50:35.132Z,3.10
2017-04-26T08:51:35.264Z,2.90
2017-04-26T08:52:35.371Z,2.48
2017-04-26T08:53:35.486Z,4.12
2017-04-26T08:54:35.590Z,3.38
2017-04-26T08:55:35.719Z,2.77
2017-04-26T08:56:35.818Z,3.07
2017-04-26T08:57:35.933Z,2.87
2017-04-26T08:58:36.054Z,3.23
2017-04-26T08:59:36.166Z,3.48
2017-04-26T09:00:36.302Z,4.05
2017-04-26T09:01:36.406Z,3.32
2017-04-26T09:02:36.514Z,3.93
2017-04-26T09:03:36.630Z,3.52
2017-04-26T09:04:37.486Z,3.37
2017-04-26T09:05:37.606Z,4.48
2017-04-26T09:06:37.723Z,4.47
2017-04-26T09:07:37.830Z,3.48
2017-04-26T09:08:37.930Z,3.68
2017-04-26T09:09:38.048Z,3.97
2017-04-26T09:10:38.202Z,3.97
2017-04-26T09:11:38.322Z,3.72
2017-04-26T09:12:39.178Z,3.70
2017-04-26T09:13:39.620Z,3.55
2017-04-26T09:14:39.721Z,3.68
2017-04-26T09:15:39.849Z,3.73
2017-04-26T09:16:39.949Z,4.60
2017-04-26T09:17:40.062Z,3.57
2017-04-26T09:18:40.163Z,4.38
2017-04-26T09:19:40.332Z,4.25
2017-04-26T09:20:41.198Z,3.95
2017-04-26T09:21:41.326Z,4.10
2017-04-26T09:22:41.446Z,3.87
2017-04-26T09:23:41.576Z,3.57
2017-04-26T09:24:41.695Z,4.33
2017-04-26T09:25:42.570Z,3.98
2017-04-26T09:26:42.665Z,4.38
2017-04-26T09:27:42.779Z,4.52
2017-04-26T09:28:42.885Z,4.35
2017-04-26T09:29:43.010Z,4.05
2017-04-26T09:30:43.170Z,4.40
2017-04-26T09:31:44.039Z,5.03
2017-04-26T09:32:44.147Z,4.60
2017-04-26T09:33:44.249Z,4.30
2017-04-26T09:34:44.362Z,4.57
2017-04-26T09:35:44.484Z,5.12
2017-04-26T09:36:44.615Z,5.23
2017-04-26T09:37:44.747Z,5.08
2017-04-26T09:38:44.842Z,4.10
2017-04-26T09:39:44.943Z,4.28
2017-04-26T09:40:45.075Z,4.72
2017-04-26T09:41:45.190Z,4.35
2017-04-26T09:42:46.037Z,4.30
2017-04-26T09:43:46.155Z,4.53
2017-04-26T09:44:46.263Z,5.17
2017-04-26T09:45:46.398Z,5.85
2017-04-26T09:46:46.576Z,5.48
2017-04-26T09:47:46.686Z,5.80
2017-04-26T09:48:46.794Z,4.82
2017-04-26T09:49:46.903Z,5.28
2017-04-26T09:50:47.041Z,4.83
2017-04-26T09:51:47.155Z,5.32
2017-04-26T09:52:47.262Z,4.00
2017-04-26T09:53:47.370Z,4.98
2017-04-26T09:54:47.483Z,4.83
2017-04-26T09:55:47.611Z,5.13
2017-04-26T09:56:48.474Z,4.98
2017-04-26T09:57:49.341Z,4.28
2017-04-26T09:58:49.450Z,3.87
2017-04-26T09:59:49.602Z,4.97
2017-04-26T10:00:49.759Z,4.50
2017-04-26T10:01:49.865Z,4.85
2017-04-26T10:02:49.961Z,5.20
2017-04-26T10:03:50.814Z,4.42
2017-04-26T10:04:50.926Z,4.57
2017-04-26T10:05:51.053Z,5.18
2017-04-26T10:06:51.158Z,4.20
2017-04-26T10:07:51.265Z,4.65
2017-04-26T10:08:51.378Z,4.00
2017-04-26T10:09:51.477Z,4.82
2017-04-26T10:10:51.620Z,4.47
2017-04-26T10:11:51.742Z,4.85
2017-04-26T10:12:51.851Z,3.83
2017-04-26T10:13:51.961Z,4.43
2017-04-26T10:14:52.076Z,4.65
2017-04-26T10:15:52.943Z,4.10
2017-04-26T10:16:53.050Z,4.92
2017-04-26T10:17:53.179Z,4.32
2017-04-26T10:18:53.278Z,4.50
2017-04-26T10:19:53.424Z,4.90
2017-04-26T10:20:53.554Z,4.45
2017-04-26T10:21:54.418Z,4.57
2017-04-26T10:22:54.542Z,4.77
2017-04-26T10:23:54.641Z,4.98
2017-04-26T10:24:54.750Z,4.13
2017-04-26T10:25:54.918Z,3.55
2017-04-26T10:26:55.777Z,4.15
2017-04-26T10:27:56.660Z,3.70
2017-04-26T10:29:12.710Z,4.17
2017-04-26T10:29:56.934Z,4.55
2017-04-26T10:30:57.081Z,4.42
2017-04-26T10:31:57.202Z,4.67
2017-04-26T10:32:57.310Z,4.98
2017-04-26T10:33:57.414Z,4.48
2017-04-26T10:34:57.521Z,3.92
2017-04-26T10:35:57.645Z,4.10
2017-04-26T10:36:57.760Z,4.22
2017-04-26T10:37:58.615Z,3.90
2017-04-26T10:38:58.750Z,4.33
2017-04-26T10:39:58.885Z,3.67
2017-04-26T10:40:59.026Z,4.25
2017-04-26T10:41:59.878Z,4.10
2017-04-26T10:43:00.002Z,4.52
2017-04-26T10:44:00.114Z,4.60
2017-04-26T10:45:00.259Z,4.13
2017-04-26T10:46:00.390Z,4.50
2017-04-26T10:47:01.280Z,4.75
2017-04-26T10:48:01.393Z,4.67
2017-04-26T10:49:01.500Z,3.97
2017-04-26T10:50:01.616Z,4.18
2017-04-26T10:51:01.742Z,4.63
2017-04-26T10:52:01.846Z,3.87
2017-04-26T10:53:01.967Z,4.27
2017-04-26T10:54:02.075Z,4.08
2017-04-26T10:55:02.207Z,4.68
2017-04-26T10:56:02.356Z,3.95
2017-04-26T10:57:02.482Z,3.77
2017-04-26T10:58:02.642Z,4.28
2017-04-26T10:59:02.754Z,4.03
2017-04-26T11:00:02.866Z,4.53
2017-04-26T11:01:03.003Z,4.37
2017-04-26T11:02:03.128Z,4.02
2017-04-26T11:03:03.246Z,3.73
2017-04-26T11:04:03.354Z,4.87
2017-04-26T11:05:03.528Z,4.42
2017-04-26T11:06:03.656Z,4.12
2017-04-26T11:07:03.789Z,4.28
2017-04-26T11:08:03.894Z,4.42
2017-04-26T11:09:04.066Z,4.30
2017-04-26T11:10:04.235Z,4.50
2017-04-26T11:11:04.430Z,4.18
2017-04-26T11:12:04.572Z,3.88
2017-04-26T11:13:04.702Z,4.13
2017-04-26T11:14:04.836Z,4.00
2017-04-26T11:15:04.950Z,4.15
2017-04-26T11:16:05.114Z,3.93
2017-04-26T11:17:05.243Z,3.52
2017-04-26T11:18:05.351Z,3.70
2017-04-26T11:19:05.475Z,3.67
2017-04-26T11:20:05.599Z,3.88
2017-04-26T11:21:05.719Z,3.95
2017-04-26T11:22:05.861Z,4.53
2017-04-26T11:23:05.978Z,4.05
2017-04-26T11:24:06.825Z,3.90
2017-04-26T11:25:06.940Z,4.20
2017-04-26T11:26:07.071Z,4.05
2017-04-26T11:27:07.211Z,3.67
2017-04-26T11:28:07.334Z,3.88
2017-04-26T11:29:08.180Z,4.20
2017-04-26T11:30:08.462Z,3.57
2017-04-26T11:31:08.590Z,3.85
2017-04-26T11:32:09.577Z,3.32
2017-04-26T11:33:09.689Z,3.47
2017-04-26T11:34:09.808Z,3.57
2017-04-26T11:35:09.917Z,3.65
2017-04-26T11:36:10.022Z,3.90
2017-04-26T11:37:10.150Z,4.33
2017-04-26T11:38:10.281Z,3.88
2017-04-26T11:39:11.132Z,3.75
2017-04-26T11:40:11.254Z,3.47
2017-04-26T11:41:11.378Z,3.62
2017-04-26T11:42:11.526Z,4.10
2017-04-26T11:43:12.390Z,3.57
2017-04-26T11:44:12.510Z,3.58
2017-04-26T11:45:12.634Z,3.93
2017-04-26T11:46:12.740Z,4.25
2017-04-26T11:47:12.883Z,3.43
2017-04-26T11:48:13.011Z,3.77
2017-04-26T11:49:13.930Z,4.05
2017-04-26T11:50:14.816Z,3.33
2017-04-26T11:51:14.944Z,3.10
2017-04-26T11:52:15.067Z,3.58
2017-04-26T11:53:15.180Z,3.35
2017-04-26T11:54:15.298Z,3.63
2017-04-26T11:55:16.165Z,3.18
2017-04-26T11:56:16.274Z,2.98
2017-04-26T11:57:16.410Z,3.77
2017-04-26T11:58:16.511Z,3.38
2017-04-26T11:59:16.616Z,4.15
2017-04-26T12:00:16.803Z,3.70
2017-04-26T12:01:16.923Z,3.32
2017-04-26T12:02:17.064Z,4.15
2017-04-26T12:03:17.171Z,3.87
2017-04-26T12:04:17.301Z,3.45
2017-04-26T12:05:17.431Z,3.05
2017-04-26T12:06:18.294Z,3.58
2017-04-26T12:07:18.463Z,3.10
2017-04-26T12:08:19.338Z,3.48
2017-04-26T12:09:19.479Z,3.73
2017-04-26T12:10:19.601Z,3.30
2017-04-26T12:11:19.722Z,3.72
2017-04-26T12:12:19.863Z,3.20
2017-04-26T12:13:19.970Z,3.37
2017-04-26T12:14:20.079Z,3.48
2017-04-26T12:15:20.186Z,3.35
2017-04-26T12:16:20.299Z,3.22
2017-04-26T12:17:20.460Z,3.58
2017-04-26T12:18:20.569Z,4.55
2017-04-26T12:19:20.677Z,4.08
2017-04-26T12:20:20.807Z,3.37
2017-04-26T12:21:21.367Z,3.22
2017-04-26T12:22:21.534Z,3.37
2017-04-26T12:23:21.670Z,3.50
2017-04-26T12:24:21.787Z,3.50
2017-04-26T12:25:21.925Z,3.17
2017-04-26T12:26:22.022Z,3.90
2017-04-26T12:27:22.405Z,3.68
2017-04-26T12:28:22.579Z,2.93
2017-04-26T12:29:22.692Z,3.20
2017-04-26T12:30:22.835Z,3.13
2017-04-26T12:31:23.699Z,2.95
2017-04-26T12:32:23.828Z,3.48
2017-04-26T12:33:23.934Z,3.53
2017-04-26T12:34:24.806Z,3.62
2017-04-26T12:35:25.675Z,3.53
2017-04-26T12:36:25.770Z,3.33
2017-04-26T12:37:25.918Z,4.22
2017-04-26T12:38:26.023Z,3.28
2017-04-26T12:39:26.151Z,3.42
2017-04-26T12:40:26.585Z,3.38
2017-04-26T12:41:27.435Z,3.70
2017-04-26T12:42:27.568Z,3.47
2017-04-26T12:43:27.686Z,3.88
2017-04-26T12:44:27.842Z,4.37
2017-04-26T12:45:28.763Z,3.47
2017-04-26T12:46:29.658Z,3.70
2017-04-26T12:47:29.865Z,3.80
2017-04-26T12:48:29.970Z,3.58
2017-04-26T12:49:30.069Z,3.65
2017-04-26T12:50:30.170Z,3.37
2017-04-26T12:51:30.925Z,3.10
2017-04-26T12:52:31.067Z,3.02
2017-04-26T12:53:31.923Z,3.33
2017-04-26T12:54:32.021Z,3.32
2017-04-26T12:55:32.869Z,3.90
2017-04-26T12:56:33.018Z,3.03
2017-04-26T12:57:33.433Z,2.98
2017-04-26T12:58:33.542Z,2.43
2017-04-26T12:59:33.638Z,2.23
2017-04-26T13:00:33.742Z,2.82
2017-04-26T13:01:33.842Z,2.93
2017-04-26T13:02:33.951Z,2.10
2017-04-26T13:03:34.878Z,2.50
2017-04-26T13:04:34.977Z,2.67
2017-04-26T13:05:35.090Z,2.50
2017-04-26T13:06:35.198Z,2.43
2017-04-26T13:07:35.379Z,2.50
2017-04-26T13:08:36.215Z,1.95
2017-04-26T13:09:37.044Z,2.93
2017-04-26T13:10:37.148Z,2.20
2017-04-26T13:11:37.242Z,2.65
2017-04-26T13:12:38.098Z,2.25
2017-04-26T13:13:38.192Z,2.12
2017-04-26T13:14:39.038Z,2.50
2017-04-26T13:15:39.126Z,2.15
2017-04-26T13:16:39.971Z,2.25
2017-04-26T13:17:40.106Z,2.33
2017-04-26T13:18:40.219Z,2.23
2017-04-26T13:19:40.318Z,2.28
2017-04-26T13:20:40.418Z,2.30
2017-04-26T13:21:40.526Z,2.42
2017-04-26T13:22:40.650Z,2.50
2017-04-26T13:25:43.618Z,2.52
2017-04-26T13:28:13.422Z,2.40
2017-04-26T13:30:43.202Z,2.62
2017-04-26T13:33:12.250Z,2.27